Mason Valley Wildlife Refuge, Nevada Weather observations

Data are for 10 minute period ending at time listed.
 Day   Time   Solar   Ave.   Ave.  Ave.  Vector  Max.   Baro.   Total    
  of    of     Rad.   Air    Rel.  Wind   Wind   Wind  Press.  Precip.   
Year   Day            Temp.  Hum.  Speed  Dir.   Gust                    
2015   (PST)  Kw/m2    F      %     mph   deg.    mph    mb.     in.     
-------------------------------------------------------------------------
  27    0:50   0.00   37.9    56    0.7   254     2.5   868.6    0.00 
  27    1:00   0.00   37.3    58    1.6   147     2.8   868.6    0.00 
  27    1:10   0.00   37.5    57    0.4   142     1.5   868.6    0.00 
  27    1:20   0.00   38.1    56    1.2   196     2.1   868.5    0.00 
  27    1:30   0.00   37.1    58    1.1    16     2.3   868.6    0.00 
  27    1:40   0.00   36.9    58    2.9    49     5.6   868.7    0.00 
  27    1:50   0.00   36.6    60    2.5    82     3.7   868.7    0.00 
  27    2:00   0.00   36.9    62    0.4    82     2.1   868.7    0.00 
  27    2:10   0.00   37.0    62    1.2   290     3.9   868.7    0.00 
  27    2:20   0.00   36.6    61    2.2   270     3.7   868.7    0.00 
  27    2:30   0.00   36.8    61    0.6   325     2.0   868.6    0.00 
  27    2:40   0.00   36.6    60    2.5   272     4.1   868.6    0.00 
  27    2:50   0.00   36.6    61    1.7   284     3.5   868.6    0.00 
  27    3:00   0.00   36.7    62    4.3   295     6.1   868.4    0.00 
  27    3:10   0.00   37.1    62    2.7   276     4.0   868.5    0.00 
  27    3:20   0.00   37.6    61    2.3   343     3.1   868.5    0.00 
  27    3:30   0.00   37.6    61    3.3    37     4.4   868.5    0.00 
  27    3:40   0.00   38.3    63    3.9    26     5.7   868.4    0.00 
  27    3:50   0.00   39.9    61    2.9    26     5.4   868.4    0.00 
  27    4:00   0.00   39.7    60    2.0   262     4.0   868.4    0.00 
  27    4:10   0.00   39.5    60    1.7   182     4.6   868.5    0.00 
  27    4:20   0.00   40.1    58    3.6   128     5.3   868.5    0.00 
  27    4:30   0.00   38.8    59    4.2   168     5.9   868.6    0.00 
  27    4:40   0.00   38.7    59    4.2   210     6.8   868.7    0.00 
  27    4:50   0.00   39.4    58    2.9   208     5.3   868.8    0.00 
  27    5:00   0.00   39.5    57    3.9   154     5.2   868.8    0.00 
  27    5:10   0.00   39.8    56    2.9   147     5.6   868.8    0.00 
  27    5:20   0.00   40.2    56    3.0   164     6.9   868.8    0.00 
  27    5:30   0.00   39.7    56    3.6    32     5.0   869.1    0.00 
  27    5:40   0.00   39.3    58    2.5    40     6.2   869.2    0.00 
  27    5:50   0.00   39.4    60    3.7    57     7.7   869.4    0.00 
  27    6:00   0.00   39.7    60    4.6    93     6.4   869.5    0.00 
  27    6:10   0.00   39.8    60    3.1   103     7.0   869.9    0.00 
  27    6:20   0.00   39.5    62    3.4    15     5.7   870.0    0.00 
  27    6:30   0.00   40.7    61    3.6    29     5.3   870.1    0.00 
  27    6:40   0.00   40.5    64    3.3   354     6.7   870.2    0.00 
  27    6:50   0.00   40.7    68    0.8   309     3.1   870.4    0.00 
  27    7:00   0.00   40.6    71    4.2    55     9.5   870.4    0.00 
  27    7:10   0.00   40.6    73    1.8   314     3.3   870.6    0.00 
  27    7:20   0.00   40.2    77    2.5   214     6.0   870.8    0.00 
  27    7:30   0.00   38.9    79    4.2   237     8.5   871.0    0.00 
  27    7:40   0.01   38.6    79    3.7   234     5.2   871.2    0.01 
  27    7:50   0.01   38.3    81    2.5   233     4.1   871.3    0.01 
  27    8:00   0.01   38.3    84    2.6   221     4.7   871.3    0.00 
  27    8:10   0.01   38.8    85    2.0   234     3.4   871.4    0.01 
  27    8:20   0.02   39.7    86    2.7   211     4.7   871.5    0.01 
  27    8:30   0.03   39.3    87    1.5    64     3.7   871.5    0.00 
  27    8:40   0.03   39.5    90    1.5    76     2.4   871.7    0.01 
  27    8:50   0.03   39.5    91    1.1    53     2.0   871.8    0.00 
  27    9:00   0.03   40.8    91    2.3   205     5.3   871.9    0.00 
  27    9:10   0.04   40.4    90    2.0   355     4.2   871.9    0.00 
  27    9:20   0.05   40.7    90    0.5    63     1.5   872.0    0.01 
  27    9:30   0.06   41.2    91    1.0    90     2.4   872.1    0.01 
  27    9:40   0.08   42.0    91    0.2   167     1.4   872.2    0.00 
  27    9:50   0.07   42.2    90    1.3   316     3.4   872.3    0.00 
  27   10:00   0.06   42.5    90    1.8   306     3.6   872.5    0.00 
  27   10:10   0.05   42.4    89    2.1   292     3.0   872.5    0.01 
  27   10:20   0.05   43.0    89    1.5   296     2.5   872.8    0.00 
  27   10:30   0.05   42.6    90    1.1   328     2.1   872.8    0.01 
  27   10:40   0.05   42.7    90    0.5   250     1.3   872.8    0.01 
  27   10:50   0.06   43.0    90    0.3   161     2.1   872.8    0.00 
  27   11:00   0.08   43.2    91    1.9   164     3.6   872.8    0.01 
  27   11:10   0.07   43.5    90    3.8   170     5.4   872.8    0.00 
  27   11:20   0.07   43.7    90    2.5   191     5.4   873.0    0.01 
  27   11:30   0.08   44.0    89    2.5   207     4.9   873.1    0.01 
  27   11:40   0.09   44.2    89    3.7   202     8.2   873.1    0.01 
  27   11:50   0.10   44.5    85    6.0   206     8.5   873.1    0.01 
  27   12:00   0.12   44.6    82    5.1   218     9.0   873.0    0.01 
  27   12:10   0.14   44.8    82    6.4   218     9.9   872.9    0.01 
  27   12:20   0.14   44.9    80    8.8   214    11.9   872.8    0.01 
  27   12:30   0.18   45.1    81    8.8   209    12.1   872.8    0.01 
  27   12:40   0.26   45.5    80    6.8   218    10.7   872.7    0.00 
  27   12:50   0.26   46.1    78    8.5   216    12.3   872.6    0.00 
  27   13:00   0.27   46.6    76    8.9   204    12.4   872.5    0.00 
  27   13:10   0.22   46.9    76    8.1   197    11.8   872.5    0.00 
  27   13:20   0.17   46.9    78    7.4   183    12.2   872.5    0.00 
  27   13:30   0.13   46.9    81    7.2   177    10.2   872.4    0.00 
  27   13:40   0.13   46.7    82    7.8   170    11.0   872.4    0.00 
  27   13:50   0.09   46.7    82    6.3   176     9.3   872.6    0.00 
  27   14:00   0.08   46.5    81    6.6   169     9.1   872.6    0.00 
  27   14:10   0.08   46.5    82    6.2   171     9.7   872.7    0.00 
  27   14:20   0.10   46.7    81    5.5   172     8.7   872.7    0.00 
  27   14:30   0.11   46.9    81    4.8   172     7.8   872.7    0.00 
  27   14:40   0.09   47.0    80    4.1   177     7.5   872.8    0.00 
  27   14:50   0.09   47.0    81    3.6     0     5.0   872.9    0.00 
  27   15:00   0.12   47.4    74    4.4   314     8.7   873.0    0.00 
  27   15:10   0.12   47.6    71    4.4   318     9.6   873.0    0.00 
  27   15:20   0.11   48.4    67    3.2   278     5.5   872.9    0.00 
  27   15:30   0.09   48.6    67    4.0   268     6.4   872.9    0.00 
  27   15:40   0.08   48.5    66    4.7   248     6.4   873.0    0.00 
  27   15:50   0.07   48.3    69    4.1   253     5.5   873.0    0.00 
  27   16:00   0.07   48.1    69    3.7   245     5.8   873.1    0.00 
  27   16:10   0.06   48.1    69    3.5   241     6.0   873.2    0.00 
  27   16:20   0.05   47.9    70    3.3   231     5.8   873.1    0.00 
  27   16:30   0.04   47.5    72    2.7   231     4.4   873.0    0.00 
  27   16:40   0.03   47.0    72    3.7   233     4.9   873.0    0.00 
  27   16:50   0.02   46.4    72    3.6   234     5.0   873.0    0.00 
  27   17:00   0.02   45.4    76    2.7   229     3.8   873.0    0.00 
  27   17:10   0.01   45.0    77    2.6   234     3.4   873.0    0.00 
  27   17:20   0.00   44.7    77    2.2   230     2.9   873.2    0.00 
  27   17:30   0.00   43.5    80    3.4   222     4.5   873.3    0.00 
  27   17:40   0.00   43.5    80    2.8   216     3.6   873.3    0.00 
  27   17:50   0.00   44.4    74    2.4   202     3.0   873.4    0.00 
  27   18:00   0.00   44.5    73    1.5   206     2.3   873.5    0.00 
  27   18:10   0.00   44.3    72    1.5   206     2.3   873.5    0.00 
  27   18:20   0.00   43.3    74    0.7   200     2.0   873.5    0.00 
  27   18:30   0.00   42.5    75    1.2   228     2.0   873.5    0.00 
  27   18:40   0.00   40.8    79    0.8   339     1.5   873.6    0.00 
  27   18:50   0.00   40.1    84    0.0     0     0.0   873.6    0.00 
  27   19:00   0.00   39.2    85    0.4     4     1.6   873.7    0.00 
  27   19:10   0.00   38.4    88    2.2   108     3.7   873.8    0.00 
  27   19:20   0.00   37.9    87    1.5   121     2.9   873.8    0.00 
  27   19:30   0.00   37.1    88    1.1   145     2.4   873.7    0.00 
  27   19:40   0.00   36.8    89    1.1   140     1.9   873.7    0.00 
  27   19:50   0.00   36.9    90    1.2   155     2.0   873.8    0.00 
  27   20:00   0.00   37.1    90    0.5   152     2.0   873.8    0.00 
  27   20:10   0.00   37.2    90    1.4   113     2.5   873.9    0.00 
  27   20:20   0.00   38.0    89    1.9   101     2.8   873.9    0.00 
  27   20:30   0.00   36.7    88    2.0    66     2.9   874.0    0.00 
  27   20:40   0.00   36.4    91    0.1    48     0.8   874.0    0.00 
  27   20:50   0.00   36.9    91    0.6    47     1.5   874.1    0.00 
  27   21:00   0.00   36.8    91    0.8    47     1.2   874.2    0.00 
  27   21:10   0.00   36.3    91    0.0     0     0.0   874.2    0.00 
  27   21:20   0.00   36.4    91    0.2    86     1.1   874.2    0.00 
  27   21:30   0.00   35.9    91    0.8   111     2.1   874.2    0.00 
  27   21:40   0.00   35.2    92    0.7   102     2.0   874.2    0.00 
  27   21:50   0.00   35.9    92    1.6     6     2.5   874.2    0.00 
  27   22:00   0.00   36.4    91    1.6   351     2.2   874.2    0.00 
  27   22:10   0.00   38.2    89    1.2   349     1.9   874.3    0.00 
  27   22:20   0.00   37.4    86    0.7   304     1.9   874.3    0.00 
  27   22:30   0.00   36.2    87    2.7   355     3.8   874.4    0.00 
  27   22:40   0.00   36.0    88    3.2   343     4.3   874.4    0.00 
  27   22:50   0.00   35.5    88    2.3   346     3.4   874.5    0.00 
  27   23:00   0.00   35.1    90    1.4     6     2.4   874.5    0.00 
  27   23:10   0.00   35.0    91    0.4    20     1.3   874.5    0.00 
  27   23:20   0.00   35.1    91    0.1    19     1.2   874.5    0.00 
  27   23:30   0.00   34.5    91    1.3   143     2.5   874.5    0.00 
  27   23:40   0.00   33.4    92    0.8   223     3.0   874.5    0.00 
  27   23:50   0.00   33.8    93    1.3   274     2.2   874.5    0.00 
  28    0:00   0.00   34.1    93    0.5   239     1.7   874.5    0.00 
  28    0:10   0.00   34.0    93    0.7   226     1.7   874.5    0.00 
  28    0:20   0.00   33.2    92    0.8   187     1.5   874.5    0.00 
  28    0:30   0.00   34.4    94    0.1   218     2.6   874.6    0.00 
  28    0:40   0.00   32.5    92    1.1   251     2.7   874.6    0.00 

Return to Mason Valley Wildlife Refuge graphs page.


Western Regional Climate Center,wrcc@dri.edu